sensor_id;sensor_type;location;lat;lon;timestamp;P1;durP1;ratioP1;P2;durP2;ratioP2
41514;SDS011;27247;48.020;16.720;2023-04-24T00:03:10;10.37;;;7.13;;
41514;SDS011;27247;48.020;16.720;2023-04-24T00:07:21;11.63;;;7.07;;
41514;SDS011;27247;48.020;16.720;2023-04-24T00:11:31;13.32;;;6.65;;
41514;SDS011;27247;48.020;16.720;2023-04-24T00:15:41;9.53;;;6.73;;
41514;SDS011;27247;48.020;16.720;2023-04-24T00:19:52;8.57;;;6.97;;
41514;SDS011;27247;48.020;16.720;2023-04-24T00:24:08;11.02;;;7.45;;
41514;SDS011;27247;48.020;16.720;2023-04-24T00:28:21;8.07;;;6.28;;
41514;SDS011;27247;48.020;16.720;2023-04-24T00:32:31;10.50;;;7.90;;
41514;SDS011;27247;48.020;16.720;2023-04-24T00:36:41;10.83;;;8.60;;
41514;SDS011;27247;48.020;16.720;2023-04-24T00:40:52;14.32;;;9.20;;
41514;SDS011;27247;48.020;16.720;2023-04-24T00:45:04;11.15;;;8.60;;
41514;SDS011;27247;48.020;16.720;2023-04-24T00:49:15;15.60;;;10.35;;
41514;SDS011;27247;48.020;16.720;2023-04-24T00:53:25;12.00;;;9.80;;
41514;SDS011;27247;48.020;16.720;2023-04-24T00:57:36;11.50;;;10.07;;
41514;SDS011;27247;48.020;16.720;2023-04-24T01:01:48;15.63;;;10.57;;
41514;SDS011;27247;48.020;16.720;2023-04-24T01:05:58;14.65;;;10.63;;
41514;SDS011;27247;48.020;16.720;2023-04-24T01:10:09;15.65;;;11.95;;
41514;SDS011;27247;48.020;16.720;2023-04-24T01:14:20;14.25;;;10.85;;
41514;SDS011;27247;48.020;16.720;2023-04-24T01:18:30;14.23;;;10.40;;
41514;SDS011;27247;48.020;16.720;2023-04-24T01:22:40;17.13;;;11.40;;
41514;SDS011;27247;48.020;16.720;2023-04-24T01:26:51;15.90;;;11.32;;
41514;SDS011;27247;48.020;16.720;2023-04-24T01:31:02;16.40;;;11.32;;
41514;SDS011;27247;48.020;16.720;2023-04-24T01:35:12;17.90;;;11.32;;
41514;SDS011;27247;48.020;16.720;2023-04-24T01:39:22;17.10;;;11.93;;
41514;SDS011;27247;48.020;16.720;2023-04-24T01:43:35;17.17;;;11.32;;
41514;SDS011;27247;48.020;16.720;2023-04-24T01:47:45;17.77;;;12.52;;
41514;SDS011;27247;48.020;16.720;2023-04-24T01:51:56;16.65;;;12.50;;
41514;SDS011;27247;48.020;16.720;2023-04-24T01:56:07;17.30;;;11.67;;
41514;SDS011;27247;48.020;16.720;2023-04-24T02:00:17;17.25;;;12.85;;
41514;SDS011;27247;48.020;16.720;2023-04-24T02:04:28;17.08;;;12.10;;
41514;SDS011;27247;48.020;16.720;2023-04-24T02:08:38;16.92;;;12.40;;
41514;SDS011;27247;48.020;16.720;2023-04-24T02:12:48;16.80;;;12.93;;
41514;SDS011;27247;48.020;16.720;2023-04-24T02:16:59;18.27;;;12.80;;
41514;SDS011;27247;48.020;16.720;2023-04-24T02:21:10;18.60;;;12.65;;
41514;SDS011;27247;48.020;16.720;2023-04-24T02:25:21;17.67;;;13.52;;
41514;SDS011;27247;48.020;16.720;2023-04-24T02:29:31;16.60;;;12.55;;
41514;SDS011;27247;48.020;16.720;2023-04-24T02:33:42;18.80;;;14.07;;
41514;SDS011;27247;48.020;16.720;2023-04-24T02:37:52;18.50;;;13.07;;
41514;SDS011;27247;48.020;16.720;2023-04-24T02:42:03;20.03;;;12.30;;
41514;SDS011;27247;48.020;16.720;2023-04-24T02:46:13;18.85;;;12.75;;
41514;SDS011;27247;48.020;16.720;2023-04-24T02:50:23;15.20;;;11.77;;
41514;SDS011;27247;48.020;16.720;2023-04-24T02:54:34;18.97;;;13.47;;
41514;SDS011;27247;48.020;16.720;2023-04-24T02:58:44;18.42;;;13.38;;
41514;SDS011;27247;48.020;16.720;2023-04-24T03:02:55;20.40;;;12.60;;
41514;SDS011;27247;48.020;16.720;2023-04-24T03:07:05;15.90;;;12.17;;
41514;SDS011;27247;48.020;16.720;2023-04-24T03:11:15;16.02;;;13.30;;
41514;SDS011;27247;48.020;16.720;2023-04-24T03:15:26;19.03;;;13.03;;
41514;SDS011;27247;48.020;16.720;2023-04-24T03:19:36;17.10;;;12.75;;
41514;SDS011;27247;48.020;16.720;2023-04-24T03:23:46;17.50;;;13.53;;
41514;SDS011;27247;48.020;16.720;2023-04-24T03:27:57;18.43;;;13.27;;
41514;SDS011;27247;48.020;16.720;2023-04-24T03:32:07;16.27;;;12.73;;
41514;SDS011;27247;48.020;16.720;2023-04-24T03:36:17;17.50;;;12.03;;
41514;SDS011;27247;48.020;16.720;2023-04-24T03:40:29;15.35;;;11.95;;
41514;SDS011;27247;48.020;16.720;2023-04-24T03:44:39;10.70;;;8.60;;
41514;SDS011;27247;48.020;16.720;2023-04-24T03:48:50;9.55;;;6.78;;
41514;SDS011;27247;48.020;16.720;2023-04-24T03:53:00;8.67;;;5.93;;
41514;SDS011;27247;48.020;16.720;2023-04-24T03:57:10;10.37;;;7.10;;
41514;SDS011;27247;48.020;16.720;2023-04-24T04:01:20;7.67;;;5.90;;
41514;SDS011;27247;48.020;16.720;2023-04-24T04:05:31;8.70;;;4.72;;
41514;SDS011;27247;48.020;16.720;2023-04-24T04:09:41;8.17;;;5.57;;
41514;SDS011;27247;48.020;16.720;2023-04-24T04:13:52;7.17;;;4.60;;
41514;SDS011;27247;48.020;16.720;2023-04-24T04:18:04;5.82;;;4.35;;
41514;SDS011;27247;48.020;16.720;2023-04-24T04:22:15;6.97;;;4.93;;
41514;SDS011;27247;48.020;16.720;2023-04-24T04:26:25;7.57;;;5.13;;
41514;SDS011;27247;48.020;16.720;2023-04-24T04:30:36;6.77;;;4.90;;
41514;SDS011;27247;48.020;16.720;2023-04-24T04:34:48;6.78;;;4.22;;
41514;SDS011;27247;48.020;16.720;2023-04-24T04:38:59;7.07;;;4.47;;
41514;SDS011;27247;48.020;16.720;2023-04-24T04:43:09;6.47;;;4.23;;
41514;SDS011;27247;48.020;16.720;2023-04-24T04:47:21;5.97;;;4.50;;
41514;SDS011;27247;48.020;16.720;2023-04-24T04:51:34;6.75;;;3.75;;
41514;SDS011;27247;48.020;16.720;2023-04-24T04:55:44;5.27;;;3.73;;
41514;SDS011;27247;48.020;16.720;2023-04-24T04:59:56;8.05;;;5.60;;
41514;SDS011;27247;48.020;16.720;2023-04-24T05:04:06;7.97;;;5.80;;
41514;SDS011;27247;48.020;16.720;2023-04-24T05:08:17;8.90;;;5.40;;
41514;SDS011;27247;48.020;16.720;2023-04-24T05:12:27;8.73;;;6.30;;
41514;SDS011;27247;48.020;16.720;2023-04-24T05:16:38;8.98;;;5.35;;
41514;SDS011;27247;48.020;16.720;2023-04-24T05:20:48;6.45;;;5.22;;
41514;SDS011;27247;48.020;16.720;2023-04-24T05:24:59;8.77;;;5.88;;
41514;SDS011;27247;48.020;16.720;2023-04-24T05:29:09;8.32;;;5.72;;
41514;SDS011;27247;48.020;16.720;2023-04-24T05:33:20;5.90;;;5.03;;
41514;SDS011;27247;48.020;16.720;2023-04-24T05:37:30;5.32;;;4.82;;
41514;SDS011;27247;48.020;16.720;2023-04-24T05:41:40;60.85;;;41.17;;
41514;SDS011;27247;48.020;16.720;2023-04-24T05:45:51;8.55;;;5.18;;
41514;SDS011;27247;48.020;16.720;2023-04-24T05:50:01;7.22;;;4.78;;
41514;SDS011;27247;48.020;16.720;2023-04-24T05:54:11;5.40;;;3.97;;
41514;SDS011;27247;48.020;16.720;2023-04-24T05:58:22;6.57;;;4.63;;
41514;SDS011;27247;48.020;16.720;2023-04-24T06:02:32;4.73;;;4.10;;
41514;SDS011;27247;48.020;16.720;2023-04-24T06:06:42;8.37;;;4.60;;
41514;SDS011;27247;48.020;16.720;2023-04-24T06:10:53;7.83;;;4.40;;
41514;SDS011;27247;48.020;16.720;2023-04-24T06:15:03;6.27;;;4.30;;
41514;SDS011;27247;48.020;16.720;2023-04-24T06:19:14;7.13;;;4.50;;
41514;SDS011;27247;48.020;16.720;2023-04-24T06:23:24;8.60;;;4.00;;
41514;SDS011;27247;48.020;16.720;2023-04-24T06:27:35;6.00;;;4.07;;
41514;SDS011;27247;48.020;16.720;2023-04-24T06:31:45;4.90;;;3.87;;
41514;SDS011;27247;48.020;16.720;2023-04-24T06:35:55;6.17;;;4.47;;
41514;SDS011;27247;48.020;16.720;2023-04-24T06:40:06;5.25;;;3.63;;
41514;SDS011;27247;48.020;16.720;2023-04-24T06:44:17;5.18;;;4.05;;
41514;SDS011;27247;48.020;16.720;2023-04-24T06:48:27;4.25;;;3.60;;
41514;SDS011;27247;48.020;16.720;2023-04-24T06:52:38;5.53;;;3.35;;
41514;SDS011;27247;48.020;16.720;2023-04-24T06:56:48;4.03;;;3.00;;
41514;SDS011;27247;48.020;16.720;2023-04-24T07:01:00;4.70;;;3.03;;
41514;SDS011;27247;48.020;16.720;2023-04-24T07:05:10;3.87;;;2.87;;
41514;SDS011;27247;48.020;16.720;2023-04-24T07:09:21;5.03;;;3.05;;
41514;SDS011;27247;48.020;16.720;2023-04-24T07:13:32;2.92;;;2.30;;
41514;SDS011;27247;48.020;16.720;2023-04-24T07:17:42;4.30;;;2.78;;
41514;SDS011;27247;48.020;16.720;2023-04-24T07:21:55;2.63;;;2.35;;
41514;SDS011;27247;48.020;16.720;2023-04-24T07:26:05;4.20;;;2.47;;
41514;SDS011;27247;48.020;16.720;2023-04-24T07:30:16;2.25;;;2.10;;
41514;SDS011;27247;48.020;16.720;2023-04-24T07:34:26;4.00;;;2.50;;
41514;SDS011;27247;48.020;16.720;2023-04-24T07:38:37;5.53;;;2.45;;
41514;SDS011;27247;48.020;16.720;2023-04-24T07:42:47;3.17;;;2.10;;
41514;SDS011;27247;48.020;16.720;2023-04-24T07:47:00;3.03;;;1.95;;
41514;SDS011;27247;48.020;16.720;2023-04-24T07:51:11;5.60;;;1.75;;
41514;SDS011;27247;48.020;16.720;2023-04-24T07:55:23;2.88;;;1.60;;
41514;SDS011;27247;48.020;16.720;2023-04-24T07:59:34;4.78;;;1.70;;
41514;SDS011;27247;48.020;16.720;2023-04-24T08:03:44;2.65;;;1.85;;
41514;SDS011;27247;48.020;16.720;2023-04-24T08:07:55;2.95;;;1.55;;
41514;SDS011;27247;48.020;16.720;2023-04-24T08:12:05;4.00;;;1.55;;
41514;SDS011;27247;48.020;16.720;2023-04-24T08:16:16;1.77;;;1.50;;
41514;SDS011;27247;48.020;16.720;2023-04-24T08:20:26;3.88;;;1.95;;
41514;SDS011;27247;48.020;16.720;2023-04-24T08:24:36;1.93;;;1.70;;
41514;SDS011;27247;48.020;16.720;2023-04-24T08:28:47;1.70;;;1.60;;
41514;SDS011;27247;48.020;16.720;2023-04-24T08:32:57;1.60;;;1.48;;
41514;SDS011;27247;48.020;16.720;2023-04-24T08:37:08;5.32;;;1.60;;
41514;SDS011;27247;48.020;16.720;2023-04-24T08:41:18;2.10;;;1.30;;
41514;SDS011;27247;48.020;16.720;2023-04-24T08:45:29;2.33;;;1.13;;
41514;SDS011;27247;48.020;16.720;2023-04-24T08:49:39;2.30;;;1.17;;
41514;SDS011;27247;48.020;16.720;2023-04-24T08:53:49;5.60;;;1.33;;
41514;SDS011;27247;48.020;16.720;2023-04-24T08:58:03;1.90;;;1.60;;
41514;SDS011;27247;48.020;16.720;2023-04-24T09:02:14;6.82;;;2.25;;
41514;SDS011;27247;48.020;16.720;2023-04-24T09:06:25;2.50;;;1.65;;
41514;SDS011;27247;48.020;16.720;2023-04-24T09:10:37;2.00;;;1.83;;
41514;SDS011;27247;48.020;16.720;2023-04-24T09:14:49;2.92;;;2.20;;
41514;SDS011;27247;48.020;16.720;2023-04-24T09:18:59;1.70;;;1.60;;
41514;SDS011;27247;48.020;16.720;2023-04-24T09:23:10;3.35;;;1.10;;
41514;SDS011;27247;48.020;16.720;2023-04-24T09:27:26;1.08;;;1.00;;
41514;SDS011;27247;48.020;16.720;2023-04-24T09:31:38;1.40;;;1.30;;
41514;SDS011;27247;48.020;16.720;2023-04-24T09:35:49;1.60;;;1.30;;
41514;SDS011;27247;48.020;16.720;2023-04-24T09:40:07;1.10;;;1.00;;
41514;SDS011;27247;48.020;16.720;2023-04-24T09:44:18;1.50;;;0.98;;
41514;SDS011;27247;48.020;16.720;2023-04-24T09:48:31;1.80;;;0.90;;
41514;SDS011;27247;48.020;16.720;2023-04-24T09:52:47;0.90;;;0.80;;
41514;SDS011;27247;48.020;16.720;2023-04-24T09:57:09;1.17;;;1.00;;
41514;SDS011;27247;48.020;16.720;2023-04-24T10:01:32;0.68;;;0.63;;
41514;SDS011;27247;48.020;16.720;2023-04-24T10:05:42;0.50;;;0.50;;
41514;SDS011;27247;48.020;16.720;2023-04-24T10:09:56;1.45;;;1.13;;
41514;SDS011;27247;48.020;16.720;2023-04-24T10:14:06;0.82;;;0.60;;
41514;SDS011;27247;48.020;16.720;2023-04-24T10:18:20;1.58;;;0.70;;
41514;SDS011;27247;48.020;16.720;2023-04-24T10:22:32;1.00;;;0.60;;
41514;SDS011;27247;48.020;16.720;2023-04-24T10:26:44;2.53;;;0.60;;
41514;SDS011;27247;48.020;16.720;2023-04-24T10:30:55;1.38;;;0.50;;
41514;SDS011;27247;48.020;16.720;2023-04-24T10:35:07;0.50;;;0.50;;
41514;SDS011;27247;48.020;16.720;2023-04-24T10:39:19;0.55;;;0.50;;
41514;SDS011;27247;48.020;16.720;2023-04-24T10:43:31;2.03;;;0.50;;
41514;SDS011;27247;48.020;16.720;2023-04-24T10:47:50;0.82;;;0.60;;
41514;SDS011;27247;48.020;16.720;2023-04-24T10:52:11;2.17;;;0.60;;
41514;SDS011;27247;48.020;16.720;2023-04-24T10:56:22;0.65;;;0.50;;
41514;SDS011;27247;48.020;16.720;2023-04-24T11:00:32;0.67;;;0.50;;
41514;SDS011;27247;48.020;16.720;2023-04-24T11:04:43;0.77;;;0.60;;
41514;SDS011;27247;48.020;16.720;2023-04-24T11:08:58;0.70;;;0.70;;
41514;SDS011;27247;48.020;16.720;2023-04-24T11:13:14;0.80;;;0.65;;
41514;SDS011;27247;48.020;16.720;2023-04-24T11:17:32;0.90;;;0.52;;
41514;SDS011;27247;48.020;16.720;2023-04-24T11:21:48;1.70;;;0.57;;
41514;SDS011;27247;48.020;16.720;2023-04-24T11:26:14;2.63;;;0.52;;
41514;SDS011;27247;48.020;16.720;2023-04-24T11:30:33;0.50;;;0.50;;
41514;SDS011;27247;48.020;16.720;2023-04-24T11:34:47;1.10;;;0.80;;
41514;SDS011;27247;48.020;16.720;2023-04-24T11:38:59;0.60;;;0.60;;
41514;SDS011;27247;48.020;16.720;2023-04-24T11:43:09;0.85;;;0.85;;
41514;SDS011;27247;48.020;16.720;2023-04-24T11:47:27;1.38;;;0.85;;
41514;SDS011;27247;48.020;16.720;2023-04-24T11:51:40;0.60;;;0.60;;
41514;SDS011;27247;48.020;16.720;2023-04-24T11:55:51;1.15;;;0.80;;
41514;SDS011;27247;48.020;16.720;2023-04-24T12:00:02;1.07;;;0.90;;
41514;SDS011;27247;48.020;16.720;2023-04-24T12:04:16;0.93;;;0.63;;
41514;SDS011;27247;48.020;16.720;2023-04-24T12:08:27;1.70;;;0.82;;
41514;SDS011;27247;48.020;16.720;2023-04-24T12:12:38;0.82;;;0.70;;
41514;SDS011;27247;48.020;16.720;2023-04-24T12:16:49;0.70;;;0.70;;
41514;SDS011;27247;48.020;16.720;2023-04-24T12:21:16;1.15;;;1.00;;
41514;SDS011;27247;48.020;16.720;2023-04-24T12:25:31;2.30;;;1.23;;
41514;SDS011;27247;48.020;16.720;2023-04-24T12:29:52;1.02;;;0.80;;
41514;SDS011;27247;48.020;16.720;2023-04-24T12:34:17;2.42;;;1.13;;
41514;SDS011;27247;48.020;16.720;2023-04-24T12:38:31;2.97;;;1.70;;
41514;SDS011;27247;48.020;16.720;2023-04-24T12:42:50;2.83;;;1.95;;
41514;SDS011;27247;48.020;16.720;2023-04-24T12:47:01;2.17;;;1.75;;
41514;SDS011;27247;48.020;16.720;2023-04-24T12:51:11;1.38;;;1.27;;
41514;SDS011;27247;48.020;16.720;2023-04-24T12:55:22;2.58;;;1.35;;
41514;SDS011;27247;48.020;16.720;2023-04-24T12:59:32;4.15;;;1.30;;
41514;SDS011;27247;48.020;16.720;2023-04-24T13:03:42;3.70;;;1.20;;
41514;SDS011;27247;48.020;16.720;2023-04-24T13:07:53;3.92;;;2.88;;
41514;SDS011;27247;48.020;16.720;2023-04-24T13:12:03;2.10;;;1.13;;
41514;SDS011;27247;48.020;16.720;2023-04-24T13:16:15;2.53;;;0.80;;
41514;SDS011;27247;48.020;16.720;2023-04-24T13:20:25;0.93;;;0.90;;
41514;SDS011;27247;48.020;16.720;2023-04-24T13:24:36;1.60;;;0.90;;
41514;SDS011;27247;48.020;16.720;2023-04-24T13:28:48;2.70;;;0.80;;
41514;SDS011;27247;48.020;16.720;2023-04-24T13:32:58;0.50;;;0.50;;
41514;SDS011;27247;48.020;16.720;2023-04-24T13:37:08;0.70;;;0.70;;
41514;SDS011;27247;48.020;16.720;2023-04-24T13:41:19;1.67;;;0.90;;
41514;SDS011;27247;48.020;16.720;2023-04-24T13:45:29;1.15;;;0.70;;
41514;SDS011;27247;48.020;16.720;2023-04-24T13:49:40;2.07;;;0.77;;
41514;SDS011;27247;48.020;16.720;2023-04-24T13:53:50;1.10;;;0.73;;
41514;SDS011;27247;48.020;16.720;2023-04-24T13:58:00;3.23;;;0.80;;
41514;SDS011;27247;48.020;16.720;2023-04-24T14:02:11;1.92;;;0.90;;
41514;SDS011;27247;48.020;16.720;2023-04-24T14:06:21;2.85;;;0.90;;
41514;SDS011;27247;48.020;16.720;2023-04-24T14:10:32;16.60;;;7.88;;
41514;SDS011;27247;48.020;16.720;2023-04-24T14:14:43;3.27;;;2.20;;
41514;SDS011;27247;48.020;16.720;2023-04-24T14:18:53;1.27;;;1.10;;
41514;SDS011;27247;48.020;16.720;2023-04-24T14:23:04;1.33;;;1.10;;
41514;SDS011;27247;48.020;16.720;2023-04-24T14:27:14;2.33;;;1.30;;
41514;SDS011;27247;48.020;16.720;2023-04-24T14:31:24;2.40;;;1.50;;
41514;SDS011;27247;48.020;16.720;2023-04-24T14:35:35;3.00;;;1.80;;
41514;SDS011;27247;48.020;16.720;2023-04-24T14:39:46;2.70;;;2.50;;
41514;SDS011;27247;48.020;16.720;2023-04-24T14:43:56;4.95;;;1.70;;
41514;SDS011;27247;48.020;16.720;2023-04-24T14:48:07;2.40;;;1.85;;
41514;SDS011;27247;48.020;16.720;2023-04-24T14:52:18;3.22;;;1.75;;
41514;SDS011;27247;48.020;16.720;2023-04-24T14:56:28;3.10;;;2.33;;
41514;SDS011;27247;48.020;16.720;2023-04-24T15:00:38;6.47;;;2.80;;
41514;SDS011;27247;48.020;16.720;2023-04-24T15:04:49;3.15;;;2.40;;
41514;SDS011;27247;48.020;16.720;2023-04-24T15:08:59;4.53;;;2.50;;
41514;SDS011;27247;48.020;16.720;2023-04-24T15:13:10;3.38;;;2.67;;
41514;SDS011;27247;48.020;16.720;2023-04-24T15:17:20;3.93;;;3.30;;
41514;SDS011;27247;48.020;16.720;2023-04-24T15:21:30;7.67;;;3.90;;
41514;SDS011;27247;48.020;16.720;2023-04-24T15:25:41;6.03;;;3.38;;
41514;SDS011;27247;48.020;16.720;2023-04-24T15:29:52;5.00;;;3.50;;
41514;SDS011;27247;48.020;16.720;2023-04-24T15:34:03;6.00;;;3.67;;
41514;SDS011;27247;48.020;16.720;2023-04-24T15:38:13;18.63;;;12.93;;
41514;SDS011;27247;48.020;16.720;2023-04-24T15:42:24;10.25;;;7.15;;
41514;SDS011;27247;48.020;16.720;2023-04-24T15:46:34;13.23;;;7.87;;
41514;SDS011;27247;48.020;16.720;2023-04-24T15:50:46;10.00;;;6.38;;
41514;SDS011;27247;48.020;16.720;2023-04-24T15:54:57;13.57;;;9.37;;
41514;SDS011;27247;48.020;16.720;2023-04-24T15:59:07;17.37;;;12.37;;
41514;SDS011;27247;48.020;16.720;2023-04-24T16:03:17;7.93;;;5.38;;
41514;SDS011;27247;48.020;16.720;2023-04-24T16:07:28;4.50;;;3.63;;
41514;SDS011;27247;48.020;16.720;2023-04-24T16:11:38;6.07;;;3.10;;
41514;SDS011;27247;48.020;16.720;2023-04-24T16:15:49;5.38;;;3.50;;
41514;SDS011;27247;48.020;16.720;2023-04-24T16:20:01;3.15;;;1.98;;
41514;SDS011;27247;48.020;16.720;2023-04-24T16:24:12;2.00;;;1.40;;
41514;SDS011;27247;48.020;16.720;2023-04-24T16:28:23;0.88;;;0.63;;
41514;SDS011;27247;48.020;16.720;2023-04-24T16:32:33;0.87;;;0.80;;
41514;SDS011;27247;48.020;16.720;2023-04-24T16:36:43;4.15;;;1.15;;
41514;SDS011;27247;48.020;16.720;2023-04-24T16:40:54;1.58;;;1.40;;
41514;SDS011;27247;48.020;16.720;2023-04-24T16:45:04;1.63;;;0.70;;
41514;SDS011;27247;48.020;16.720;2023-04-24T16:49:15;2.30;;;0.80;;
41514;SDS011;27247;48.020;16.720;2023-04-24T16:53:26;4.07;;;0.80;;
41514;SDS011;27247;48.020;16.720;2023-04-24T16:57:36;2.75;;;1.30;;
41514;SDS011;27247;48.020;16.720;2023-04-24T17:01:47;4.82;;;2.28;;
41514;SDS011;27247;48.020;16.720;2023-04-24T17:05:58;6.88;;;3.35;;
41514;SDS011;27247;48.020;16.720;2023-04-24T17:10:08;2.60;;;1.60;;
41514;SDS011;27247;48.020;16.720;2023-04-24T17:14:19;2.72;;;1.00;;
41514;SDS011;27247;48.020;16.720;2023-04-24T17:18:29;3.63;;;1.60;;
41514;SDS011;27247;48.020;16.720;2023-04-24T17:22:41;2.15;;;1.13;;
41514;SDS011;27247;48.020;16.720;2023-04-24T17:26:52;1.73;;;1.33;;
41514;SDS011;27247;48.020;16.720;2023-04-24T17:31:03;1.67;;;1.58;;
41514;SDS011;27247;48.020;16.720;2023-04-24T17:35:13;15.80;;;10.27;;
41514;SDS011;27247;48.020;16.720;2023-04-24T17:39:25;3.20;;;1.50;;
41514;SDS011;27247;48.020;16.720;2023-04-24T17:43:36;3.65;;;2.13;;
41514;SDS011;27247;48.020;16.720;2023-04-24T17:47:46;3.33;;;2.17;;
41514;SDS011;27247;48.020;16.720;2023-04-24T17:51:57;2.67;;;1.70;;
41514;SDS011;27247;48.020;16.720;2023-04-24T17:56:07;2.60;;;1.83;;
41514;SDS011;27247;48.020;16.720;2023-04-24T18:00:18;2.67;;;2.15;;
41514;SDS011;27247;48.020;16.720;2023-04-24T18:04:28;4.72;;;1.73;;
41514;SDS011;27247;48.020;16.720;2023-04-24T18:08:39;4.30;;;1.80;;
41514;SDS011;27247;48.020;16.720;2023-04-24T18:12:49;3.83;;;1.70;;
41514;SDS011;27247;48.020;16.720;2023-04-24T18:17:01;4.43;;;2.85;;
41514;SDS011;27247;48.020;16.720;2023-04-24T18:21:12;6.68;;;2.97;;
41514;SDS011;27247;48.020;16.720;2023-04-24T18:25:22;5.03;;;3.28;;
41514;SDS011;27247;48.020;16.720;2023-04-24T18:29:35;4.75;;;3.58;;
41514;SDS011;27247;48.020;16.720;2023-04-24T18:33:46;9.35;;;4.43;;
41514;SDS011;27247;48.020;16.720;2023-04-24T18:37:57;7.28;;;4.72;;
41514;SDS011;27247;48.020;16.720;2023-04-24T18:42:07;4.40;;;3.00;;
41514;SDS011;27247;48.020;16.720;2023-04-24T18:46:18;5.95;;;3.85;;
41514;SDS011;27247;48.020;16.720;2023-04-24T18:50:28;6.03;;;3.63;;
41514;SDS011;27247;48.020;16.720;2023-04-24T18:54:40;3.90;;;3.40;;
41514;SDS011;27247;48.020;16.720;2023-04-24T18:58:51;7.05;;;3.30;;
41514;SDS011;27247;48.020;16.720;2023-04-24T19:03:05;7.75;;;5.10;;
41514;SDS011;27247;48.020;16.720;2023-04-24T19:07:17;5.20;;;4.07;;
41514;SDS011;27247;48.020;16.720;2023-04-24T19:11:30;3.60;;;3.17;;
41514;SDS011;27247;48.020;16.720;2023-04-24T19:15:41;6.18;;;3.50;;
41514;SDS011;27247;48.020;16.720;2023-04-24T19:19:51;3.23;;;2.40;;
41514;SDS011;27247;48.020;16.720;2023-04-24T19:24:02;4.82;;;2.63;;
41514;SDS011;27247;48.020;16.720;2023-04-24T19:28:13;3.10;;;2.20;;
41514;SDS011;27247;48.020;16.720;2023-04-24T19:32:23;2.22;;;2.00;;
41514;SDS011;27247;48.020;16.720;2023-04-24T19:36:34;2.30;;;1.95;;
41514;SDS011;27247;48.020;16.720;2023-04-24T19:40:45;2.55;;;2.20;;
41514;SDS011;27247;48.020;16.720;2023-04-24T19:44:56;2.47;;;1.95;;
41514;SDS011;27247;48.020;16.720;2023-04-24T19:49:06;2.78;;;1.80;;
41514;SDS011;27247;48.020;16.720;2023-04-24T19:53:17;2.33;;;1.90;;
41514;SDS011;27247;48.020;16.720;2023-04-24T19:57:28;2.30;;;2.10;;
41514;SDS011;27247;48.020;16.720;2023-04-24T20:01:38;3.15;;;1.92;;
41514;SDS011;27247;48.020;16.720;2023-04-24T20:05:50;2.13;;;1.92;;
41514;SDS011;27247;48.020;16.720;2023-04-24T20:10:00;4.18;;;1.80;;
41514;SDS011;27247;48.020;16.720;2023-04-24T20:14:11;2.67;;;1.93;;
41514;SDS011;27247;48.020;16.720;2023-04-24T20:18:21;3.40;;;2.83;;
41514;SDS011;27247;48.020;16.720;2023-04-24T20:22:32;2.50;;;1.75;;
41514;SDS011;27247;48.020;16.720;2023-04-24T20:26:47;2.55;;;1.90;;
41514;SDS011;27247;48.020;16.720;2023-04-24T20:30:57;4.10;;;2.10;;
41514;SDS011;27247;48.020;16.720;2023-04-24T20:35:08;2.35;;;2.15;;
41514;SDS011;27247;48.020;16.720;2023-04-24T20:39:19;3.33;;;2.10;;
41514;SDS011;27247;48.020;16.720;2023-04-24T20:43:29;2.45;;;2.08;;
41514;SDS011;27247;48.020;16.720;2023-04-24T20:47:40;5.32;;;2.28;;
41514;SDS011;27247;48.020;16.720;2023-04-24T20:51:50;2.58;;;2.33;;
41514;SDS011;27247;48.020;16.720;2023-04-24T20:56:00;3.50;;;2.40;;
41514;SDS011;27247;48.020;16.720;2023-04-24T21:00:11;3.13;;;2.20;;
41514;SDS011;27247;48.020;16.720;2023-04-24T21:04:22;2.42;;;2.22;;
41514;SDS011;27247;48.020;16.720;2023-04-24T21:08:32;3.40;;;2.13;;
41514;SDS011;27247;48.020;16.720;2023-04-24T21:12:43;7.13;;;2.60;;
41514;SDS011;27247;48.020;16.720;2023-04-24T21:16:53;3.37;;;2.20;;
41514;SDS011;27247;48.020;16.720;2023-04-24T21:21:09;6.20;;;2.20;;
41514;SDS011;27247;48.020;16.720;2023-04-24T21:25:19;2.28;;;2.08;;
41514;SDS011;27247;48.020;16.720;2023-04-24T21:29:30;2.40;;;2.10;;
41514;SDS011;27247;48.020;16.720;2023-04-24T21:33:41;2.53;;;2.30;;
41514;SDS011;27247;48.020;16.720;2023-04-24T21:37:52;2.97;;;2.67;;
41514;SDS011;27247;48.020;16.720;2023-04-24T21:42:02;2.25;;;2.00;;
41514;SDS011;27247;48.020;16.720;2023-04-24T21:46:13;2.80;;;2.20;;
41514;SDS011;27247;48.020;16.720;2023-04-24T21:50:23;3.40;;;2.17;;
41514;SDS011;27247;48.020;16.720;2023-04-24T21:54:33;4.97;;;2.53;;
41514;SDS011;27247;48.020;16.720;2023-04-24T21:58:44;2.93;;;2.20;;
41514;SDS011;27247;48.020;16.720;2023-04-24T22:02:55;4.70;;;3.17;;
41514;SDS011;27247;48.020;16.720;2023-04-24T22:07:05;5.65;;;2.78;;
41514;SDS011;27247;48.020;16.720;2023-04-24T22:11:16;4.03;;;2.65;;
41514;SDS011;27247;48.020;16.720;2023-04-24T22:15:26;5.32;;;2.75;;
41514;SDS011;27247;48.020;16.720;2023-04-24T22:19:36;2.53;;;2.33;;
41514;SDS011;27247;48.020;16.720;2023-04-24T22:23:47;4.30;;;2.35;;
41514;SDS011;27247;48.020;16.720;2023-04-24T22:27:58;3.92;;;2.38;;
41514;SDS011;27247;48.020;16.720;2023-04-24T22:32:08;3.03;;;2.73;;
41514;SDS011;27247;48.020;16.720;2023-04-24T22:36:19;3.42;;;2.30;;
41514;SDS011;27247;48.020;16.720;2023-04-24T22:40:29;3.83;;;2.23;;
41514;SDS011;27247;48.020;16.720;2023-04-24T22:44:40;2.72;;;2.03;;
41514;SDS011;27247;48.020;16.720;2023-04-24T22:48:51;2.75;;;2.47;;
41514;SDS011;27247;48.020;16.720;2023-04-24T22:53:01;2.47;;;1.90;;
41514;SDS011;27247;48.020;16.720;2023-04-24T22:57:11;2.03;;;1.83;;
41514;SDS011;27247;48.020;16.720;2023-04-24T23:01:22;3.53;;;2.10;;
41514;SDS011;27247;48.020;16.720;2023-04-24T23:05:33;1.63;;;1.52;;
41514;SDS011;27247;48.020;16.720;2023-04-24T23:09:43;4.97;;;2.93;;
41514;SDS011;27247;48.020;16.720;2023-04-24T23:13:53;2.37;;;2.00;;
41514;SDS011;27247;48.020;16.720;2023-04-24T23:18:04;2.60;;;2.17;;
41514;SDS011;27247;48.020;16.720;2023-04-24T23:22:15;2.75;;;1.98;;
41514;SDS011;27247;48.020;16.720;2023-04-24T23:26:25;2.20;;;1.90;;
41514;SDS011;27247;48.020;16.720;2023-04-24T23:30:35;3.22;;;2.55;;
41514;SDS011;27247;48.020;16.720;2023-04-24T23:34:46;3.15;;;2.00;;
41514;SDS011;27247;48.020;16.720;2023-04-24T23:38:56;3.77;;;2.10;;
41514;SDS011;27247;48.020;16.720;2023-04-24T23:43:06;4.88;;;1.92;;
41514;SDS011;27247;48.020;16.720;2023-04-24T23:47:17;2.70;;;1.87;;
41514;SDS011;27247;48.020;16.720;2023-04-24T23:51:27;2.33;;;1.63;;
41514;SDS011;27247;48.020;16.720;2023-04-24T23:55:37;4.22;;;2.17;;
41514;SDS011;27247;48.020;16.720;2023-04-24T23:59:48;2.33;;;1.90;;
